Time;durP1;ratioP1;P1;durP2;ratioP2;P2;SDS_P1;SDS_P2;PMS_P1;PMS_P2;Temp;Humidity;BMP_temperature;BMP_pressure;BME280_temperature;BME280_humidity;BME280_pressure;Samples;Min_cycle;Max_cycle;Signal;HPM_P1;HPM_P2
2023/04/19 00:01:33;;;;;;;;;2.00;2.00;;;;;20.99;51.25;101637.75;110201;1265;21514;-39
2023/04/19 00:04:00;;;;;;;;;4.00;4.00;;;;;20.99;51.08;101631.91;110210;1251;19563;-39
2023/04/19 00:06:29;;;;;;;;;4.00;4.00;;;;;20.99;51.23;101633.77;110170;1266;23064;-39
2023/04/19 00:08:57;;;;;;;;;;;;;;;20.99;51.19;101626.34;110214;1265;22940;-39
2023/04/19 00:11:24;;;;;;;;;4.00;4.00;;;;;20.98;51.17;101623.27;110196;1265;19401;-39
2023/04/19 00:13:52;;;;;;;;;4.00;4.00;;;;;20.99;51.26;101619.02;110212;1266;21219;-39
2023/04/19 00:16:20;;;;;;;;;2.00;2.00;;;;;20.99;51.23;101617.92;110256;1264;20326;-39
2023/04/19 00:18:47;;;;;;;;;2.00;2.00;;;;;20.99;51.09;101614.14;110272;1265;22803;-38
2023/04/19 00:21:15;;;;;;;;;4.00;4.00;;;;;20.99;51.10;101611.42;110222;1264;19543;-38
2023/04/19 00:23:43;;;;;;;;;2.00;2.00;;;;;20.99;51.01;101606.11;110176;1265;22947;-39
2023/04/19 00:26:14;;;;;;;;;4.00;4.00;;;;;20.99;51.25;101599.81;110198;1251;20274;-39
2023/04/19 00:28:42;;;;;;;;;2.00;2.00;;;;;20.98;51.01;101598.55;110191;1265;22911;-40
2023/04/19 00:31:09;;;;;;;;;1.67;1.67;;;;;20.98;51.10;101593.29;110216;1257;20146;-42
2023/04/19 00:33:37;;;;;;;;;2.00;2.00;;;;;20.99;50.93;101593.42;110266;1265;23154;-40
2023/04/19 00:36:04;;;;;;;;;4.00;4.00;;;;;20.98;50.98;101587.31;110212;1257;24036;-40
2023/04/19 00:38:32;;;;;;;;;4.00;2.00;;;;;20.99;50.97;101583.79;110156;1265;21564;-40
2023/04/19 00:40:59;;;;;;;;;2.00;2.00;;;;;20.99;51.01;101587.05;110167;1257;19125;-39
2023/04/19 00:43:27;;;;;;;;;2.00;2.00;;;;;20.99;51.10;101583.08;110210;1264;20982;-39
2023/04/19 00:45:54;;;;;;;;;2.00;2.00;;;;;20.98;51.10;101574.78;110163;1250;22859;-41
2023/04/19 00:48:22;;;;;;;;;4.33;4.33;;;;;20.98;50.99;101570.58;110218;1264;19287;-41
2023/04/19 00:50:49;;;;;;;;;2.00;2.00;;;;;20.98;51.04;101569.48;110189;1264;20731;-40
2023/04/19 00:53:16;;;;;;;;;4.00;3.33;;;;;20.98;50.92;101567.17;110276;1264;21371;-40
2023/04/19 00:55:44;;;;;;;;;2.00;2.00;;;;;20.98;50.97;101563.17;110239;1264;19612;-40
2023/04/19 00:58:11;;;;;;;;;3.00;3.00;;;;;20.98;51.03;101556.99;110269;1264;23575;-40
2023/04/19 01:00:39;;;;;;;;;2.00;2.00;;;;;20.99;51.01;101559.65;110204;1264;21945;-38
2023/04/19 01:03:07;;;;;;;;;2.00;2.00;;;;;20.98;51.07;101559.70;110204;1264;19140;-39
2023/04/19 01:05:35;;;;;;;;;4.00;4.00;;;;;20.98;50.91;101553.89;110230;1264;19613;-39
2023/04/19 01:08:02;;;;;;;;;4.00;2.00;;;;;20.98;51.07;101552.45;110234;1264;22903;-38
2023/04/19 01:10:30;;;;;;;;;2.00;2.00;;;;;20.98;50.90;101552.69;110257;1264;19514;-40
2023/04/19 01:12:58;;;;;;;;;2.00;2.00;;;;;20.98;50.92;101551.55;110263;1264;23379;-39
2023/04/19 01:15:25;;;;;;;;;4.00;4.00;;;;;20.98;51.01;101549.23;110271;1264;22654;-39
2023/04/19 01:17:54;;;;;;;;;4.00;4.00;;;;;20.97;50.92;101546.36;110289;1264;19003;-39
2023/04/19 01:20:22;;;;;;;;;4.00;4.00;;;;;20.97;50.87;101547.07;110235;1264;23435;-39
2023/04/19 01:22:49;;;;;;;;;4.00;4.00;;;;;20.98;51.03;101548.06;110286;1250;21724;-39
2023/04/19 01:25:17;;;;;;;;;2.00;2.00;;;;;20.98;50.70;101541.41;110082;1259;21701;-39
2023/04/19 01:27:45;;;;;;;;;4.50;4.00;;;;;20.97;50.91;101542.73;110284;1264;20853;-41
2023/04/19 01:30:12;;;;;;;;;2.00;2.00;;;;;20.97;50.99;101544.89;110251;1251;21467;-39
2023/04/19 01:32:39;;;;;;;;;2.00;2.00;;;;;20.98;51.00;101538.86;110279;1264;19582;-39
2023/04/19 01:35:09;;;;;;;;;5.00;2.00;;;;;20.97;50.86;101537.05;110241;1264;21809;-39
2023/04/19 01:37:37;;;;;;;;;4.00;4.00;;;;;20.98;50.93;101533.02;110216;1264;23698;-38
2023/04/19 01:40:05;;;;;;;;;2.00;2.00;;;;;20.97;50.78;101527.83;110222;1264;19052;-40
2023/04/19 01:42:32;;;;;;;;;2.00;2.00;;;;;20.98;50.89;101525.40;110270;1251;19518;-38
2023/04/19 01:45:00;;;;;;;;;2.00;2.00;;;;;20.98;50.85;101519.08;110258;1264;20401;-42
2023/04/19 01:47:27;;;;;;;;;4.00;4.00;;;;;20.97;50.85;101514.60;110249;1264;19605;-40
2023/04/19 01:49:55;;;;;;;;;7.00;5.00;;;;;20.97;50.89;101509.32;110216;1264;20727;-41
2023/04/19 01:52:22;;;;;;;;;1.00;1.00;;;;;20.97;50.89;101509.29;110239;1264;23648;-40
2023/04/19 01:54:49;;;;;;;;;2.00;2.00;;;;;20.97;50.87;101507.55;110241;1264;19548;-40
2023/04/19 01:57:17;;;;;;;;;4.00;4.00;;;;;20.97;50.82;101509.02;110238;1264;23125;-40
2023/04/19 01:59:45;;;;;;;;;2.00;2.00;;;;;20.97;50.74;101508.98;110203;1264;23445;-40
2023/04/19 02:02:12;;;;;;;;;2.67;2.00;;;;;20.97;50.79;101506.77;110113;1264;19564;-40
2023/04/19 02:04:40;;;;;;;;;2.00;2.00;;;;;20.97;50.74;101501.35;110209;1250;21214;-40
2023/04/19 02:07:08;;;;;;;;;4.00;4.00;;;;;20.97;50.71;101501.77;110248;1257;21595;-39
2023/04/19 02:09:35;;;;;;;;;4.00;4.00;;;;;20.96;50.93;101494.20;110239;1251;19543;-40
2023/04/19 02:12:03;;;;;;;;;2.00;2.00;;;;;20.96;50.77;101492.50;110207;1250;20950;-40
2023/04/19 02:14:31;;;;;;;;;4.00;4.00;;;;;20.96;50.83;101487.99;110212;1264;23756;-39
2023/04/19 02:16:58;;;;;;;;;4.00;2.00;;;;;20.97;50.80;101490.10;110250;1264;19915;-39
2023/04/19 02:19:25;;;;;;;;;3.00;2.00;;;;;20.96;50.80;101483.50;110243;1264;20714;-39
2023/04/19 02:21:56;;;;;;;;;4.00;2.00;;;;;20.95;50.81;101482.07;110200;1251;21543;-40
2023/04/19 02:24:24;;;;;;;;;2.00;2.00;;;;;20.95;50.68;101479.92;110198;1264;22655;-39
2023/04/19 02:26:51;;;;;;;;;2.00;2.00;;;;;20.96;50.85;101485.82;110215;1249;22251;-39
2023/04/19 02:29:19;;;;;;;;;1.50;1.50;;;;;20.96;50.71;101483.84;110269;1264;21540;-39
2023/04/19 02:31:47;;;;;;;;;3.00;2.00;;;;;20.95;50.88;101484.25;110338;1264;23301;-40
2023/04/19 02:34:14;;;;;;;;;4.00;3.00;;;;;20.96;50.76;101485.14;110192;1265;23676;-40
2023/04/19 02:36:42;;;;;;;;;4.00;2.00;;;;;20.95;50.70;101487.17;110249;1264;20141;-40
2023/04/19 02:39:09;;;;;;;;;4.00;3.33;;;;;20.96;50.69;101481.48;110223;1264;19572;-39
2023/04/19 02:41:37;;;;;;;;;2.00;2.00;;;;;20.96;50.84;101479.27;110200;1264;20798;-39
2023/04/19 02:44:04;;;;;;;;;5.00;2.00;;;;;20.95;50.73;101471.71;110191;1250;20297;-43
2023/04/19 02:46:32;;;;;;;;;4.00;4.00;;;;;20.96;50.60;101469.66;110195;1265;23695;-39
2023/04/19 02:48:59;;;;;;;;;4.00;4.00;;;;;20.95;50.65;101469.59;110184;1265;19560;-39
2023/04/19 02:51:27;;;;;;;;;2.00;2.00;;;;;20.95;50.60;101465.71;110263;1264;21436;-40
2023/04/19 02:53:54;;;;;;;;;4.00;4.00;;;;;20.95;50.70;101460.88;110200;1251;19308;-37
2023/04/19 02:56:22;;;;;;;;;2.00;2.00;;;;;20.95;50.71;101453.73;110197;1264;20768;-39
2023/04/19 02:58:49;;;;;;;;;2.00;2.00;;;;;20.95;50.72;101447.80;110112;1264;21587;-39
2023/04/19 03:01:17;;;;;;;;;3.00;3.00;;;;;20.95;50.48;101446.30;110167;1251;19594;-39
2023/04/19 03:03:44;;;;;;;;;2.00;2.00;;;;;20.95;50.73;101441.77;110220;1265;20716;-40
2023/04/19 03:06:11;;;;;;;;;4.00;4.00;;;;;20.95;50.55;101432.36;110187;1265;20261;-40
2023/04/19 03:08:39;;;;;;;;;3.00;3.00;;;;;20.95;50.77;101432.84;110203;1264;19536;-40
2023/04/19 03:11:06;;;;;;;;;4.00;2.67;;;;;20.95;50.60;101423.84;110197;1265;23337;-40
2023/04/19 03:13:34;;;;;;;;;2.00;2.00;;;;;20.95;50.61;101423.61;110184;1251;20153;-40
2023/04/19 03:16:01;;;;;;;;;2.00;2.00;;;;;20.95;50.76;101429.20;110194;1265;20605;-40
2023/04/19 03:18:29;;;;;;;;;4.00;4.00;;;;;20.95;50.61;101428.31;110202;1250;21098;-39
2023/04/19 03:20:57;;;;;;;;;4.00;2.00;;;;;20.94;50.58;101425.11;110182;1250;20050;-40
2023/04/19 03:23:24;;;;;;;;;4.00;4.00;;;;;20.96;50.66;101422.66;110184;1249;24255;-39
2023/04/19 03:25:52;;;;;;;;;5.00;5.00;;;;;20.95;50.52;101417.11;110180;1265;22951;-40
2023/04/19 03:28:19;;;;;;;;;5.00;2.00;;;;;20.95;50.51;101416.36;110223;1265;23598;-39
2023/04/19 03:30:46;;;;;;;;;2.00;2.00;;;;;20.95;50.64;101419.83;110236;1265;19596;-39
2023/04/19 03:33:14;;;;;;;;;4.00;4.00;;;;;20.95;50.50;101414.14;110170;1250;19842;-40
2023/04/19 03:35:41;;;;;;;;;2.00;2.00;;;;;20.95;50.63;101414.85;110242;1265;23650;-40
2023/04/19 03:38:09;;;;;;;;;4.00;4.00;;;;;20.95;50.48;101410.36;110287;1251;22975;-43
2023/04/19 03:40:36;;;;;;;;;2.00;2.00;;;;;20.94;50.66;101403.03;110273;1265;20748;-40
2023/04/19 03:43:04;;;;;;;;;4.00;4.00;;;;;20.95;50.65;101402.77;110245;1251;21791;-40
2023/04/19 03:45:31;;;;;;;;;4.50;4.00;;;;;20.94;50.66;101400.61;110265;1265;19187;-39
2023/04/19 03:47:59;;;;;;;;;2.00;2.00;;;;;20.94;50.31;101397.21;110203;1265;20624;-40
2023/04/19 03:50:26;;;;;;;;;2.00;2.00;;;;;20.94;50.47;101399.56;110195;1250;20180;-40
2023/04/19 03:52:54;;;;;;;;;2.00;2.00;;;;;20.94;50.59;101402.48;110203;1266;19557;-40
2023/04/19 03:55:21;;;;;;;;;2.00;2.00;;;;;20.93;50.54;101400.00;110269;1265;20794;-40
2023/04/19 03:57:49;;;;;;;;;4.00;4.00;;;;;20.94;50.49;101409.71;110206;1265;20133;-40
2023/04/19 04:00:16;;;;;;;;;4.00;4.00;;;;;20.93;50.60;101406.98;110204;1257;19547;-40
2023/04/19 04:02:43;;;;;;;;;4.00;4.00;;;;;20.93;50.39;101407.86;110194;1251;20902;-40
2023/04/19 04:05:11;;;;;;;;;4.00;4.00;;;;;20.94;50.40;101406.67;110175;1264;21516;-40
2023/04/19 04:07:38;;;;;;;;;2.00;2.00;;;;;20.93;50.47;101417.10;110217;1251;21215;-40
2023/04/19 04:10:06;;;;;;;;;2.00;2.00;;;;;20.94;50.42;101418.47;110176;1251;20811;-40
2023/04/19 04:12:33;;;;;;;;;4.00;4.00;;;;;20.93;50.51;101412.79;110198;1251;21539;-40
2023/04/19 04:15:01;;;;;;;;;2.00;2.00;;;;;20.94;50.47;101416.08;110193;1264;19051;-40
2023/04/19 04:17:28;;;;;;;;;4.00;4.00;;;;;20.93;50.54;101415.80;110222;1264;21132;-40
2023/04/19 04:19:56;;;;;;;;;2.00;2.00;;;;;20.93;50.53;101413.41;110172;1264;23525;-40
2023/04/19 04:22:23;;;;;;;;;2.00;2.00;;;;;20.93;50.48;101410.73;110207;1264;19531;-40
2023/04/19 04:24:52;;;;;;;;;2.00;2.00;;;;;20.94;50.55;101409.95;110224;1264;19357;-41
2023/04/19 04:27:20;;;;;;;;;2.00;2.00;;;;;20.94;50.55;101399.97;110104;1251;21616;-38
2023/04/19 04:29:48;;;;;;;;;2.00;2.00;;;;;20.93;50.51;101400.39;110163;1264;19558;-39
2023/04/19 04:32:17;;;;;;;;;4.00;2.00;;;;;20.94;50.46;101390.15;110202;1264;23496;-40
2023/04/19 04:34:44;;;;;;;;;4.00;4.00;;;;;20.93;50.43;101378.02;110247;1264;22900;-39
2023/04/19 04:37:12;;;;;;;;;4.00;2.00;;;;;20.94;50.49;101375.91;110255;1264;19619;-39
2023/04/19 04:39:40;;;;;;;;;4.00;4.00;;;;;20.98;50.74;101373.48;110230;1257;23721;-41
2023/04/19 04:42:07;;;;;;;;;4.00;4.00;;;;;21.00;50.83;101370.36;110240;1264;20274;-39
2023/04/19 04:44:35;;;;;;;;;4.00;4.00;;;;;20.99;50.82;101367.41;110263;1264;19220;-40
2023/04/19 04:47:02;;;;;;;;;2.00;2.00;;;;;20.99;50.89;101360.09;110225;1264;19385;-39
2023/04/19 04:49:30;;;;;;;;;4.00;4.00;;;;;21.03;51.06;101360.25;110162;1251;23084;-40
2023/04/19 04:51:57;;;;;;;;;2.00;2.00;;;;;21.06;51.24;101356.79;110176;1251;19644;-40
2023/04/19 04:54:25;;;;;;;;;2.00;2.00;;;;;21.09;51.32;101353.48;110182;1251;20925;-41
2023/04/19 04:56:52;;;;;;;;;38.00;34.67;;;;;21.09;51.37;101339.07;110204;1264;21453;-39
2023/04/19 04:59:20;;;;;;;;;74.50;60.50;;;;;21.13;51.31;101335.17;110193;1264;20076;-41
2023/04/19 05:01:47;;;;;;;;;50.00;46.00;;;;;21.17;51.98;101337.13;110166;1264;20729;-40
2023/04/19 05:04:15;;;;;;;;;75.00;59.50;;;;;21.19;52.79;101345.80;110191;1264;21496;-41
2023/04/19 05:06:43;;;;;;;;;87.00;69.00;;;;;21.21;53.45;101345.83;110183;1251;20444;-41
2023/04/19 05:09:10;;;;;;;;;111.00;91.00;;;;;21.23;54.51;101343.70;110172;1264;23109;-40
2023/04/19 05:11:38;;;;;;;;;95.00;73.00;;;;;21.28;54.88;101344.46;110179;1264;20144;-40
2023/04/19 05:14:05;;;;;;;;;82.00;67.00;;;;;21.29;54.95;101336.98;110230;1264;19016;-40
2023/04/19 05:16:33;;;;;;;;;80.00;63.00;;;;;21.24;54.46;101324.58;110177;1251;23161;-40
2023/04/19 05:19:00;;;;;;;;;68.00;56.00;;;;;21.20;54.23;101311.96;110095;1259;21577;-40
2023/04/19 05:21:28;;;;;;;;;66.00;54.00;;;;;21.15;53.59;101304.52;110210;1264;20449;-40
2023/04/19 05:23:55;;;;;;;;;65.00;55.00;;;;;21.10;53.76;101307.21;110148;1251;23457;-40
2023/04/19 05:26:23;;;;;;;;;63.00;51.00;;;;;21.06;53.56;101327.77;110164;1264;21511;-38
2023/04/19 05:28:50;;;;;;;;;60.00;50.00;;;;;21.02;53.26;101341.84;110203;1264;19165;-39
2023/04/19 05:31:19;;;;;;;;;61.50;50.50;;;;;20.98;52.98;101339.67;110234;1264;19486;-39
2023/04/19 05:33:47;;;;;;;;;46.00;45.00;;;;;20.94;52.77;101341.95;110165;1264;23497;-40
2023/04/19 05:36:15;;;;;;;;;49.00;45.00;;;;;20.92;52.39;101346.94;110174;1251;20292;-38
2023/04/19 05:38:42;;;;;;;;;44.00;41.00;;;;;20.90;51.96;101345.84;110165;1261;23414;-39
2023/04/19 05:41:10;;;;;;;;;35.67;33.67;;;;;20.88;51.57;101341.69;110167;1251;21530;-40
2023/04/19 05:43:38;;;;;;;;;36.00;32.00;;;;;20.86;50.90;101328.83;110175;1251;22974;-40
2023/04/19 05:46:05;;;;;;;;;33.00;31.00;;;;;20.84;50.36;101325.20;110199;1257;19679;-41
2023/04/19 05:48:33;;;;;;;;;26.00;24.00;;;;;20.83;50.23;101319.05;110237;1264;21371;-40
2023/04/19 05:51:00;;;;;;;;;23.00;23.00;;;;;20.80;49.13;101319.52;110248;1264;23544;-40
2023/04/19 05:53:28;;;;;;;;;16.00;16.00;;;;;20.79;48.74;101319.63;110187;1264;19708;-39
2023/04/19 05:55:55;;;;;;;;;19.00;16.00;;;;;20.80;48.69;101323.95;110169;1249;23031;-39
2023/04/19 05:58:23;;;;;;;;;16.00;14.00;;;;;20.82;48.38;101320.16;110184;1264;19179;-38
2023/04/19 06:00:50;;;;;;;;;16.50;15.00;;;;;20.83;48.53;101324.46;110253;1264;20780;-38
2023/04/19 06:03:18;;;;;;;;;10.50;10.50;;;;;20.82;48.71;101330.52;110263;1264;21673;-38
2023/04/19 06:05:45;;;;;;;;;8.00;8.00;;;;;20.82;49.09;101332.70;110233;1264;20026;-39
2023/04/19 06:08:15;;;;;;;;;10.50;9.00;;;;;20.80;49.15;101326.86;110249;1264;19312;-39
2023/04/19 06:10:46;;;;;;;;;8.00;8.00;;;;;20.78;49.27;101319.09;110207;1264;23652;-38
2023/04/19 06:13:13;;;;;;;;;8.00;7.00;;;;;20.79;49.28;101311.19;110177;1251;23157;-39
2023/04/19 06:15:40;;;;;;;;;8.00;7.00;;;;;20.80;49.47;101303.80;110211;1264;19238;-39
2023/04/19 06:18:09;;;;;;;;;7.00;7.00;;;;;20.82;49.62;101300.23;110159;1251;21539;-39
2023/04/19 06:20:37;;;;;;;;;7.00;7.00;;;;;20.81;49.53;101300.67;110166;1257;19237;-39
2023/04/19 06:23:04;;;;;;;;;5.67;5.00;;;;;20.81;49.88;101295.59;110202;1251;22590;-39
2023/04/19 06:25:32;;;;;;;;;4.00;4.00;;;;;20.81;49.83;101290.31;110177;1264;21487;-39
2023/04/19 06:27:59;;;;;;;;;5.00;5.00;;;;;20.82;49.93;101295.87;110143;1260;19194;-41
2023/04/19 06:30:27;;;;;;;;;5.00;5.00;;;;;20.83;49.98;101300.65;110255;1264;23781;-39
2023/04/19 06:32:54;;;;;;;;;5.00;5.00;;;;;20.83;49.96;101301.54;110208;1260;23219;-39
2023/04/19 06:35:24;;;;;;;;;5.00;5.00;;;;;20.84;50.19;101301.85;110191;1250;19692;-39
2023/04/19 06:37:51;;;;;;;;;4.00;4.00;;;;;20.83;49.99;101303.35;110198;1264;19370;-40
2023/04/19 06:40:18;;;;;;;;;3.00;3.00;;;;;20.84;50.02;101307.84;110220;1264;20460;-40
2023/04/19 06:42:46;;;;;;;;;7.00;7.00;;;;;20.84;50.20;101306.38;110204;1264;19639;-40
2023/04/19 06:45:14;;;;;;;;;4.00;4.00;;;;;20.84;50.20;101307.40;110195;1264;21343;-40
2023/04/19 06:47:42;;;;;;;;;2.00;2.00;;;;;20.84;50.13;101301.67;110226;1250;22566;-39
2023/04/19 06:50:10;;;;;;;;;3.00;3.00;;;;;20.83;50.21;101298.48;110198;1264;19526;-40
2023/04/19 06:52:37;;;;;;;;;5.00;5.00;;;;;20.86;50.31;101298.35;110209;1264;20692;-40
2023/04/19 06:55:05;;;;;;;;;4.50;2.00;;;;;20.88;50.31;101296.15;110187;1264;21700;-41
2023/04/19 06:57:32;;;;;;;;;4.00;4.00;;;;;20.87;50.65;101291.30;110175;1264;19170;-40
2023/04/19 07:00:00;;;;;;;;;4.00;4.00;;;;;20.87;50.59;101283.37;110195;1249;19401;-41
2023/04/19 07:02:27;;;;;;;;;2.00;2.00;;;;;20.86;50.64;101283.43;110217;1251;21748;-40
2023/04/19 07:04:55;;;;;;;;;4.00;4.00;;;;;20.90;50.37;101281.77;110171;1264;20025;-40
2023/04/19 07:07:22;;;;;;;;;2.00;2.00;;;;;20.93;50.42;101280.67;110170;1264;22951;-39
2023/04/19 07:09:50;;;;;;;;;4.00;4.00;;;;;20.96;50.71;101276.71;110193;1264;20250;-41
2023/04/19 07:12:17;;;;;;;;;4.00;3.00;;;;;20.97;51.16;101271.27;110193;1264;19159;-39
2023/04/19 07:14:44;;;;;;;;;4.00;4.00;;;;;21.00;51.47;101266.26;110194;1264;22946;-39
2023/04/19 07:17:13;;;;;;;;;2.00;2.00;;;;;21.00;51.58;101268.40;110134;1264;21464;-39
2023/04/19 07:19:41;;;;;;;;;3.00;3.00;;;;;21.02;51.87;101268.05;110255;1266;19116;-39
2023/04/19 07:22:08;;;;;;;;;2.00;2.00;;;;;21.03;51.84;101261.77;110257;1265;19378;-39
2023/04/19 07:24:39;;;;;;;;;3.00;3.00;;;;;21.03;51.99;101255.17;110200;1264;20107;-40
2023/04/19 07:27:06;;;;;;;;;2.00;2.00;;;;;21.04;52.33;101255.48;110206;1257;21275;-37
2023/04/19 07:29:33;;;;;;;;;2.00;2.00;;;;;21.02;52.47;101248.60;110176;1265;20589;-39
2023/04/19 07:32:01;;;;;;;;;4.00;4.00;;;;;21.02;52.57;101254.46;110154;1251;21843;-39
2023/04/19 07:34:28;;;;;;;;;2.00;2.00;;;;;21.03;52.30;101250.67;110230;1251;19639;-39
2023/04/19 07:36:56;;;;;;;;;2.00;2.00;;;;;21.03;52.51;101254.63;110192;1265;19516;-39
2023/04/19 07:39:23;;;;;;;;;2.00;2.00;;;;;21.03;52.49;101249.18;110141;1264;22860;-39
2023/04/19 07:41:51;;;;;;;;;2.00;2.00;;;;;21.02;52.66;101251.83;110181;1264;19776;-38
2023/04/19 07:44:18;;;;;;;;;2.00;2.00;;;;;21.01;52.58;101252.77;110248;1265;20497;-38
2023/04/19 07:46:46;;;;;;;;;2.00;2.00;;;;;21.01;52.39;101253.27;110205;1265;20173;-39
2023/04/19 07:49:13;;;;;;;;;4.00;4.00;;;;;21.00;52.46;101254.40;110164;1251;23539;-40
2023/04/19 07:51:40;;;;;;;;;4.00;4.00;;;;;21.01;52.37;101258.90;110164;1251;20820;-39
2023/04/19 07:54:08;;;;;;;;;4.00;4.00;;;;;21.01;52.21;101260.66;110194;1251;21573;-40
2023/04/19 07:56:35;;;;;;;;;2.00;2.00;;;;;21.01;52.29;101264.72;110261;1265;19516;-40
2023/04/19 07:59:03;;;;;;;;;2.00;2.00;;;;;21.00;52.13;101261.58;110225;1265;20848;-41
2023/04/19 08:01:30;;;;;;;;;2.00;2.00;;;;;21.02;52.17;101259.84;110240;1251;21742;-40
2023/04/19 08:03:58;;;;;;;;;1.00;1.00;;;;;21.04;52.19;101265.33;110261;1251;19309;-38
2023/04/19 08:06:26;;;;;;;;;1.00;1.00;;;;;21.02;52.20;101260.94;110206;1264;20684;-39
2023/04/19 08:08:54;;;;;;;;;2.00;2.00;;;;;21.04;52.44;101264.35;110292;1250;24625;-39
2023/04/19 08:11:21;;;;;;;;;2.00;2.00;;;;;21.06;52.57;101265.45;110200;1251;19923;-40
2023/04/19 08:13:48;;;;;;;;;2.00;2.00;;;;;21.06;52.46;101274.55;110219;1264;19376;-40
2023/04/19 08:16:16;;;;;;;;;2.00;2.00;;;;;21.06;52.41;101269.60;110262;1260;20021;-40
2023/04/19 08:18:45;;;;;;;;;2.00;2.00;;;;;21.06;52.41;101267.30;110185;1251;20754;-40
2023/04/19 08:21:12;;;;;;;;;2.00;2.00;;;;;21.05;52.19;101262.11;110267;1265;22971;-39
2023/04/19 08:23:39;;;;;;;;;2.00;2.00;;;;;21.04;52.24;101265.86;110243;1264;20241;-39
2023/04/19 08:26:07;;;;;;;;;2.00;2.00;;;;;21.04;52.12;101265.05;110251;1257;19163;-40
2023/04/19 08:28:34;;;;;;;;;2.00;2.00;;;;;21.05;52.29;101265.92;110092;1266;152716;-40
2023/04/19 08:31:02;;;;;;;;;2.00;2.00;;;;;21.05;52.30;101263.29;110183;1251;21844;-39
2023/04/19 08:33:29;;;;;;;;;1.50;1.50;;;;;21.07;52.46;101260.03;110232;1265;20652;-39
2023/04/19 08:35:57;;;;;;;;;2.00;2.00;;;;;21.07;52.60;101252.56;110281;1265;19353;-39
2023/04/19 08:38:24;;;;;;;;;2.00;2.00;;;;;21.07;52.73;101249.30;110167;1265;21451;-39
2023/04/19 08:40:53;;;;;;;;;1.00;1.00;;;;;21.09;52.76;101256.59;110169;1251;23032;-40
2023/04/19 08:43:21;;;;;;;;;1.00;1.00;;;;;21.09;52.74;101254.61;110291;1266;20978;-40
2023/04/19 08:45:48;;;;;;;;;2.00;2.00;;;;;21.09;52.51;101254.95;110292;1251;21486;-40
2023/04/19 08:48:16;;;;;;;;;2.00;2.00;;;;;21.09;52.26;101256.76;110281;1251;23080;-39
2023/04/19 08:50:45;;;;;;;;;1.67;1.67;;;;;21.08;52.53;101256.14;110283;1250;22994;-41
2023/04/19 08:53:12;;;;;;;;;2.00;2.00;;;;;21.07;52.49;101261.30;110274;1251;22952;-40
2023/04/19 08:55:40;;;;;;;;;2.00;2.00;;;;;21.07;52.54;101258.09;110284;1264;19803;-41
2023/04/19 08:58:07;;;;;;;;;1.00;1.00;;;;;21.07;52.52;101255.91;110309;1265;20684;-40
2023/04/19 09:00:35;;;;;;;;;2.00;2.00;;;;;21.06;52.43;101254.01;110279;1264;23866;-38
2023/04/19 09:03:02;;;;;;;;;2.00;2.00;;;;;21.04;52.32;101254.88;110306;1257;22912;-40
2023/04/19 09:05:29;;;;;;;;;2.00;2.00;;;;;21.03;52.63;101245.36;110205;1264;19681;-42
2023/04/19 09:07:57;;;;;;;;;1.50;1.50;;;;;21.03;52.41;101245.02;110213;1264;20176;-40
2023/04/19 09:10:25;;;;;;;;;2.00;2.00;;;;;21.03;52.50;101241.61;110283;1264;24671;-40
2023/04/19 09:12:52;;;;;;;;;2.00;2.00;;;;;21.01;52.36;101241.11;110287;1264;23775;-40
2023/04/19 09:15:20;;;;;;;;;1.00;1.00;;;;;21.03;52.22;101238.14;110253;1259;20086;-41
2023/04/19 09:17:47;;;;;;;;;2.00;2.00;;;;;21.04;52.23;101236.91;110276;1251;19610;-39
2023/04/19 09:20:14;;;;;;;;;1.00;1.00;;;;;21.05;52.29;101236.86;110316;1264;20694;-40
2023/04/19 09:22:42;;;;;;;;;2.00;2.00;;;;;21.05;52.10;101236.48;110224;1250;20134;-38
2023/04/19 09:25:09;;;;;;;;;2.00;1.50;;;;;21.04;51.97;101234.73;110228;1264;19601;-39
2023/04/19 09:27:37;;;;;;;;;4.00;4.00;;;;;21.03;52.14;101234.08;110220;1264;20631;-40
2023/04/19 09:30:05;;;;;;;;;4.00;2.00;;;;;21.02;52.26;101233.30;110214;1251;21395;-39
2023/04/19 09:32:32;;;;;;;;;2.00;2.00;;;;;21.02;52.18;101233.67;110222;1250;23539;-40
2023/04/19 09:35:00;;;;;;;;;2.00;2.00;;;;;21.01;52.08;101233.61;110217;1264;19371;-40
2023/04/19 09:37:28;;;;;;;;;2.00;2.00;;;;;21.01;52.09;101232.36;110217;1264;21969;-41
2023/04/19 09:39:55;;;;;;;;;2.00;2.00;;;;;21.00;51.99;101229.52;110205;1264;19141;-41
2023/04/19 09:42:22;;;;;;;;;1.00;1.00;;;;;21.00;52.12;101230.98;110191;1264;19317;-39
2023/04/19 09:44:50;;;;;;;;;2.00;2.00;;;;;21.00;52.19;101231.95;110177;1264;20165;-40
2023/04/19 09:47:17;;;;;;;;;4.00;2.00;;;;;21.00;52.00;101230.50;110228;1264;19206;-39
2023/04/19 09:49:45;;;;;;;;;1.50;1.50;;;;;20.99;52.17;101224.55;110188;1251;20794;-42
2023/04/19 09:52:12;;;;;;;;;2.00;2.00;;;;;21.03;51.95;101224.52;110173;1264;20131;-40
2023/04/19 09:54:40;;;;;;;;;2.00;1.00;;;;;21.07;52.27;101224.67;110209;1264;19562;-39
2023/04/19 09:57:07;;;;;;;;;1.00;1.00;;;;;21.09;52.32;101224.29;110179;1264;20596;-39
2023/04/19 09:59:34;;;;;;;;;1.33;1.33;;;;;21.11;52.69;101220.59;110211;1251;23408;-40
2023/04/19 10:02:02;;;;;;;;;3.00;3.00;;;;;21.11;52.75;101218.73;110233;1251;19212;-39
2023/04/19 10:04:29;;;;;;;;;2.00;2.00;;;;;21.05;52.98;101216.80;110156;1251;22988;-39
2023/04/19 10:06:57;;;;;;;;;7.00;5.00;;;;;21.01;52.61;101221.05;110245;1264;20146;-38
2023/04/19 10:09:25;;;;;;;;;7.33;7.00;;;;;20.99;52.20;101216.61;110236;1260;19572;-41
2023/04/19 10:11:53;;;;;;;;;4.00;2.00;;;;;20.96;52.05;101214.17;110198;1264;20684;-41
2023/04/19 10:14:20;;;;;;;;;9.00;8.50;;;;;20.94;51.78;101214.83;110186;1256;21526;-40
2023/04/19 10:16:48;;;;;;;;;11.00;10.00;;;;;20.94;51.55;101215.68;110197;1264;23048;-40
2023/04/19 10:19:15;;;;;;;;;14.50;9.00;;;;;20.92;50.87;101214.10;111080;1251;21033;-40
2023/04/19 10:21:42;;;;;;;;;9.00;9.00;;;;;20.89;50.50;101214.81;111799;1265;20107;-41
2023/04/19 10:24:10;;;;;;;;;18.00;15.00;;;;;20.86;50.42;101209.30;112035;1251;19608;-38
2023/04/19 10:26:37;;;;;;;;;18.50;18.00;;;;;20.84;50.04;101210.58;111869;1265;20773;-38
2023/04/19 10:29:05;;;;;;;;;16.00;16.00;;;;;20.80;49.67;101207.93;112115;1265;22608;-39
2023/04/19 10:31:32;;;;;;;;;19.00;18.00;;;;;20.74;48.75;101199.89;111912;1254;19953;-38
2023/04/19 10:34:00;;;;;;;;;21.00;19.00;;;;;20.69;48.38;101200.04;112149;1265;19465;-39
2023/04/19 10:36:27;;;;;;;;;34.00;25.00;;;;;20.66;47.83;101199.35;111915;1250;20277;-41
2023/04/19 10:38:55;;;;;;;;;27.00;22.00;;;;;20.61;47.33;101197.08;112112;1265;19987;-42
2023/04/19 10:41:22;;;;;;;;;30.00;27.00;;;;;20.60;47.31;101200.22;111896;1265;19465;-39
2023/04/19 10:43:50;;;;;;;;;25.00;22.00;;;;;20.57;46.89;101203.26;112093;1251;21478;-40
2023/04/19 10:46:17;;;;;;;;;23.50;23.50;;;;;20.56;46.87;101204.23;111897;1265;19902;-39
2023/04/19 10:48:47;;;;;;;;;21.00;18.50;;;;;20.52;46.57;101202.90;112091;1265;19481;-40
2023/04/19 10:51:14;;;;;;;;;22.00;21.00;;;;;20.48;46.27;101200.30;112001;1265;21881;-39
2023/04/19 10:53:42;;;;;;;;;19.00;15.00;;;;;20.45;46.40;101198.20;111896;1265;20036;-40
2023/04/19 10:56:09;;;;;;;;;24.50;22.00;;;;;20.45;46.08;101201.39;111988;1260;20669;-40
2023/04/19 10:58:37;;;;;;;;;22.00;20.00;;;;;20.45;46.02;101204.77;111954;1265;21501;-40
2023/04/19 11:01:04;;;;;;;;;21.00;18.00;;;;;20.45;45.77;101202.95;111907;1265;20012;-39
2023/04/19 11:03:32;;;;;;;;;20.00;18.00;;;;;20.45;45.66;101203.65;111989;1265;19450;-40
2023/04/19 11:05:59;;;;;;;;;18.50;18.00;;;;;20.43;45.65;101203.87;111995;1265;21425;-39
2023/04/19 11:08:27;;;;;;;;;18.00;16.00;;;;;20.46;45.59;101206.02;111953;1265;18604;-40
2023/04/19 11:10:54;;;;;;;;;13.00;13.00;;;;;20.45;45.54;101211.92;111944;1265;21834;-40
2023/04/19 11:13:21;;;;;;;;;16.00;15.00;;;;;20.42;45.44;101211.10;111964;1265;20182;-39
2023/04/19 11:15:49;;;;;;;;;15.00;13.00;;;;;20.42;45.38;101215.67;111785;1265;20070;-39